sensor_id;sensor_type;location;lat;lon;timestamp;temperature;humidity
7564;DHT22;3823;53.586;10.040;2023-03-21T00:00:20;8.50;1.00
7564;DHT22;3823;53.586;10.040;2023-03-21T00:02:46;8.50;1.00
7564;DHT22;3823;53.586;10.040;2023-03-21T00:05:11;8.60;1.00
7564;DHT22;3823;53.586;10.040;2023-03-21T00:07:37;8.60;1.00
7564;DHT22;3823;53.586;10.040;2023-03-21T00:10:03;8.60;1.00
7564;DHT22;3823;53.586;10.040;2023-03-21T00:12:29;8.50;1.00
7564;DHT22;3823;53.586;10.040;2023-03-21T00:14:57;8.50;1.00
7564;DHT22;3823;53.586;10.040;2023-03-21T00:17:31;8.50;1.00
7564;DHT22;3823;53.586;10.040;2023-03-21T00:20:02;8.50;1.00
7564;DHT22;3823;53.586;10.040;2023-03-21T00:22:33;8.50;1.00
7564;DHT22;3823;53.586;10.040;2023-03-21T00:24:59;8.50;1.00
7564;DHT22;3823;53.586;10.040;2023-03-21T00:27:25;8.60;1.00
7564;DHT22;3823;53.586;10.040;2023-03-21T00:29:50;8.60;1.00
7564;DHT22;3823;53.586;10.040;2023-03-21T00:32:16;8.60;1.00
7564;DHT22;3823;53.586;10.040;2023-03-21T00:34:42;8.60;1.00
7564;DHT22;3823;53.586;10.040;2023-03-21T00:37:09;8.60;1.00
7564;DHT22;3823;53.586;10.040;2023-03-21T00:39:36;8.70;1.00
7564;DHT22;3823;53.586;10.040;2023-03-21T00:42:02;8.70;1.00
7564;DHT22;3823;53.586;10.040;2023-03-21T00:44:28;8.60;1.00
7564;DHT22;3823;53.586;10.040;2023-03-21T00:46:53;8.60;1.00
7564;DHT22;3823;53.586;10.040;2023-03-21T00:49:19;8.60;1.00
7564;DHT22;3823;53.586;10.040;2023-03-21T00:51:46;8.60;1.00
7564;DHT22;3823;53.586;10.040;2023-03-21T00:54:15;8.60;1.00
7564;DHT22;3823;53.586;10.040;2023-03-21T00:56:41;8.60;1.00
7564;DHT22;3823;53.586;10.040;2023-03-21T00:59:07;8.70;1.00
7564;DHT22;3823;53.586;10.040;2023-03-21T01:01:32;8.70;1.00
7564;DHT22;3823;53.586;10.040;2023-03-21T01:03:58;8.60;1.00
7564;DHT22;3823;53.586;10.040;2023-03-21T01:06:35;8.60;1.00
7564;DHT22;3823;53.586;10.040;2023-03-21T01:09:04;8.50;1.00
7564;DHT22;3823;53.586;10.040;2023-03-21T01:11:30;8.60;1.00
7564;DHT22;3823;53.586;10.040;2023-03-21T01:13:56;8.60;1.00
7564;DHT22;3823;53.586;10.040;2023-03-21T01:16:23;8.60;1.00
7564;DHT22;3823;53.586;10.040;2023-03-21T01:18:49;8.60;1.00
7564;DHT22;3823;53.586;10.040;2023-03-21T01:21:15;8.70;1.00
7564;DHT22;3823;53.586;10.040;2023-03-21T01:23:42;8.70;1.00
7564;DHT22;3823;53.586;10.040;2023-03-21T01:26:09;8.60;1.00
7564;DHT22;3823;53.586;10.040;2023-03-21T01:28:36;8.60;1.00
7564;DHT22;3823;53.586;10.040;2023-03-21T01:31:02;8.60;1.00
7564;DHT22;3823;53.586;10.040;2023-03-21T01:33:28;8.60;1.00
7564;DHT22;3823;53.586;10.040;2023-03-21T01:35:54;8.60;1.00
7564;DHT22;3823;53.586;10.040;2023-03-21T01:38:20;8.70;1.00
7564;DHT22;3823;53.586;10.040;2023-03-21T01:40:47;8.70;1.00
7564;DHT22;3823;53.586;10.040;2023-03-21T01:43:34;8.70;1.00
7564;DHT22;3823;53.586;10.040;2023-03-21T01:48:40;8.70;1.00
7564;DHT22;3823;53.586;10.040;2023-03-21T01:51:09;8.70;1.00
7564;DHT22;3823;53.586;10.040;2023-03-21T01:53:37;8.60;1.00
7564;DHT22;3823;53.586;10.040;2023-03-21T01:56:27;8.60;1.00
7564;DHT22;3823;53.586;10.040;2023-03-21T01:58:57;8.70;1.00
7564;DHT22;3823;53.586;10.040;2023-03-21T02:01:23;8.70;1.00
7564;DHT22;3823;53.586;10.040;2023-03-21T02:03:50;8.70;1.00
7564;DHT22;3823;53.586;10.040;2023-03-21T02:06:27;8.70;1.00
7564;DHT22;3823;53.586;10.040;2023-03-21T02:08:58;8.80;1.00
7564;DHT22;3823;53.586;10.040;2023-03-21T02:11:25;8.80;1.00
7564;DHT22;3823;53.586;10.040;2023-03-21T02:13:51;8.80;1.00
7564;DHT22;3823;53.586;10.040;2023-03-21T02:27:33;8.80;1.00
7564;DHT22;3823;53.586;10.040;2023-03-21T02:30:32;8.80;1.00
7564;DHT22;3823;53.586;10.040;2023-03-21T02:36:00;8.60;1.00
7564;DHT22;3823;53.586;10.040;2023-03-21T02:38:40;8.60;1.00
7564;DHT22;3823;53.586;10.040;2023-03-21T02:43:56;8.70;1.00
7564;DHT22;3823;53.586;10.040;2023-03-21T02:46:30;8.80;1.00
7564;DHT22;3823;53.586;10.040;2023-03-21T02:49:14;8.70;1.00
7564;DHT22;3823;53.586;10.040;2023-03-21T02:51:42;8.70;1.00
7564;DHT22;3823;53.586;10.040;2023-03-21T02:54:13;8.70;1.00
7564;DHT22;3823;53.586;10.040;2023-03-21T02:56:41;8.70;1.00
7564;DHT22;3823;53.586;10.040;2023-03-21T02:59:08;8.70;1.00
7564;DHT22;3823;53.586;10.040;2023-03-21T03:01:34;8.70;1.00
7564;DHT22;3823;53.586;10.040;2023-03-21T03:03:59;8.70;1.00
7564;DHT22;3823;53.586;10.040;2023-03-21T03:06:41;8.70;1.00
7564;DHT22;3823;53.586;10.040;2023-03-21T03:09:28;8.70;1.00
7564;DHT22;3823;53.586;10.040;2023-03-21T03:12:07;8.70;1.00
7564;DHT22;3823;53.586;10.040;2023-03-21T03:14:57;8.70;1.00
7564;DHT22;3823;53.586;10.040;2023-03-21T03:17:56;8.70;1.00
7564;DHT22;3823;53.586;10.040;2023-03-21T03:23:45;8.60;1.00
7564;DHT22;3823;53.586;10.040;2023-03-21T03:26:18;8.70;1.00
7564;DHT22;3823;53.586;10.040;2023-03-21T03:28:50;8.70;1.00
7564;DHT22;3823;53.586;10.040;2023-03-21T03:31:22;8.80;1.00
7564;DHT22;3823;53.586;10.040;2023-03-21T03:33:52;8.90;1.00
7564;DHT22;3823;53.586;10.040;2023-03-21T03:36:19;8.80;1.00
7564;DHT22;3823;53.586;10.040;2023-03-21T03:38:48;8.70;1.00
7564;DHT22;3823;53.586;10.040;2023-03-21T03:41:23;8.70;1.00
7564;DHT22;3823;53.586;10.040;2023-03-21T03:43:52;8.70;1.00
7564;DHT22;3823;53.586;10.040;2023-03-21T03:46:28;8.70;1.00
7564;DHT22;3823;53.586;10.040;2023-03-21T03:49:01;8.70;1.00
7564;DHT22;3823;53.586;10.040;2023-03-21T03:51:33;8.70;1.00
7564;DHT22;3823;53.586;10.040;2023-03-21T03:54:13;8.70;1.00
7564;DHT22;3823;53.586;10.040;2023-03-21T03:56:42;8.80;1.00
7564;DHT22;3823;53.586;10.040;2023-03-21T03:59:08;8.80;1.00
7564;DHT22;3823;53.586;10.040;2023-03-21T04:01:34;8.70;1.00
7564;DHT22;3823;53.586;10.040;2023-03-21T04:04:00;8.70;1.00
7564;DHT22;3823;53.586;10.040;2023-03-21T04:06:26;8.80;1.00
7564;DHT22;3823;53.586;10.040;2023-03-21T04:08:54;8.70;1.00
7564;DHT22;3823;53.586;10.040;2023-03-21T04:11:20;8.80;1.00
7564;DHT22;3823;53.586;10.040;2023-03-21T04:13:46;8.80;1.00
7564;DHT22;3823;53.586;10.040;2023-03-21T04:16:12;8.80;1.00
7564;DHT22;3823;53.586;10.040;2023-03-21T04:18:39;8.80;1.00
7564;DHT22;3823;53.586;10.040;2023-03-21T04:21:10;8.80;1.00
7564;DHT22;3823;53.586;10.040;2023-03-21T04:23:37;8.90;1.00
7564;DHT22;3823;53.586;10.040;2023-03-21T04:26:03;8.80;1.00
7564;DHT22;3823;53.586;10.040;2023-03-21T04:28:30;8.90;1.00
7564;DHT22;3823;53.586;10.040;2023-03-21T04:30:55;8.90;1.00
7564;DHT22;3823;53.586;10.040;2023-03-21T04:33:22;8.90;1.00
7564;DHT22;3823;53.586;10.040;2023-03-21T04:35:53;8.90;1.00
7564;DHT22;3823;53.586;10.040;2023-03-21T04:38:24;8.90;1.00
7564;DHT22;3823;53.586;10.040;2023-03-21T04:40:51;8.80;1.00
7564;DHT22;3823;53.586;10.040;2023-03-21T04:43:16;8.80;1.00
7564;DHT22;3823;53.586;10.040;2023-03-21T04:45:42;8.90;1.00
7564;DHT22;3823;53.586;10.040;2023-03-21T04:48:08;8.80;1.00
7564;DHT22;3823;53.586;10.040;2023-03-21T04:50:34;8.70;1.00
7564;DHT22;3823;53.586;10.040;2023-03-21T04:53:00;8.70;1.00
7564;DHT22;3823;53.586;10.040;2023-03-21T04:55:25;8.70;1.00
7564;DHT22;3823;53.586;10.040;2023-03-21T04:57:52;8.80;1.00
7564;DHT22;3823;53.586;10.040;2023-03-21T05:00:18;8.80;1.00
7564;DHT22;3823;53.586;10.040;2023-03-21T05:02:45;8.80;1.00
7564;DHT22;3823;53.586;10.040;2023-03-21T05:05:11;8.80;1.00
7564;DHT22;3823;53.586;10.040;2023-03-21T05:07:39;8.70;1.00
7564;DHT22;3823;53.586;10.040;2023-03-21T05:10:07;8.70;1.00
7564;DHT22;3823;53.586;10.040;2023-03-21T05:12:33;8.70;1.00
7564;DHT22;3823;53.586;10.040;2023-03-21T05:14:58;8.70;1.00
7564;DHT22;3823;53.586;10.040;2023-03-21T05:17:24;8.70;1.00
7564;DHT22;3823;53.586;10.040;2023-03-21T05:19:53;8.70;1.00
7564;DHT22;3823;53.586;10.040;2023-03-21T05:22:21;8.80;1.00
7564;DHT22;3823;53.586;10.040;2023-03-21T05:24:49;8.70;1.00
7564;DHT22;3823;53.586;10.040;2023-03-21T05:27:16;8.80;1.00
7564;DHT22;3823;53.586;10.040;2023-03-21T05:29:59;8.70;1.00
7564;DHT22;3823;53.586;10.040;2023-03-21T05:32:25;8.70;1.00
7564;DHT22;3823;53.586;10.040;2023-03-21T05:34:50;8.70;1.00
7564;DHT22;3823;53.586;10.040;2023-03-21T05:37:16;8.70;1.00
7564;DHT22;3823;53.586;10.040;2023-03-21T05:39:41;8.80;1.00
7564;DHT22;3823;53.586;10.040;2023-03-21T05:42:07;8.80;1.00
7564;DHT22;3823;53.586;10.040;2023-03-21T05:44:32;8.70;1.00
7564;DHT22;3823;53.586;10.040;2023-03-21T05:46:58;8.70;1.00
7564;DHT22;3823;53.586;10.040;2023-03-21T05:49:24;8.70;1.00
7564;DHT22;3823;53.586;10.040;2023-03-21T05:51:51;8.60;1.00
7564;DHT22;3823;53.586;10.040;2023-03-21T05:54:16;8.80;1.00
7564;DHT22;3823;53.586;10.040;2023-03-21T05:56:42;8.80;1.00
7564;DHT22;3823;53.586;10.040;2023-03-21T05:59:07;8.70;1.00
7564;DHT22;3823;53.586;10.040;2023-03-21T06:01:33;8.70;1.00
7564;DHT22;3823;53.586;10.040;2023-03-21T06:03:58;8.70;1.00
7564;DHT22;3823;53.586;10.040;2023-03-21T06:06:24;8.70;1.00
7564;DHT22;3823;53.586;10.040;2023-03-21T06:08:49;8.70;1.00
7564;DHT22;3823;53.586;10.040;2023-03-21T06:11:43;8.70;1.00
7564;DHT22;3823;53.586;10.040;2023-03-21T06:14:10;8.70;1.00
7564;DHT22;3823;53.586;10.040;2023-03-21T06:16:38;8.70;1.00
7564;DHT22;3823;53.586;10.040;2023-03-21T06:19:03;8.80;1.00
7564;DHT22;3823;53.586;10.040;2023-03-21T06:21:29;8.70;1.00
7564;DHT22;3823;53.586;10.040;2023-03-21T06:23:54;8.70;1.00
7564;DHT22;3823;53.586;10.040;2023-03-21T06:26:20;8.70;1.00
7564;DHT22;3823;53.586;10.040;2023-03-21T06:28:48;8.70;1.00
7564;DHT22;3823;53.586;10.040;2023-03-21T06:31:14;8.70;1.00
7564;DHT22;3823;53.586;10.040;2023-03-21T06:33:40;8.60;1.00
7564;DHT22;3823;53.586;10.040;2023-03-21T06:36:06;8.50;1.00
7564;DHT22;3823;53.586;10.040;2023-03-21T06:38:31;8.50;1.00
7564;DHT22;3823;53.586;10.040;2023-03-21T06:40:57;8.50;1.00
7564;DHT22;3823;53.586;10.040;2023-03-21T06:43:23;8.50;1.00
7564;DHT22;3823;53.586;10.040;2023-03-21T06:45:49;8.60;1.00
7564;DHT22;3823;53.586;10.040;2023-03-21T06:48:14;8.60;1.00
7564;DHT22;3823;53.586;10.040;2023-03-21T06:50:40;8.60;1.00
7564;DHT22;3823;53.586;10.040;2023-03-21T06:53:06;8.60;1.00
7564;DHT22;3823;53.586;10.040;2023-03-21T06:55:31;8.60;1.00
7564;DHT22;3823;53.586;10.040;2023-03-21T06:57:57;8.60;1.00
7564;DHT22;3823;53.586;10.040;2023-03-21T07:00:23;8.70;1.00
7564;DHT22;3823;53.586;10.040;2023-03-21T07:02:49;8.70;1.00
7564;DHT22;3823;53.586;10.040;2023-03-21T07:05:15;8.70;1.00
7564;DHT22;3823;53.586;10.040;2023-03-21T07:07:41;8.70;1.00
7564;DHT22;3823;53.586;10.040;2023-03-21T07:10:08;8.80;1.00
7564;DHT22;3823;53.586;10.040;2023-03-21T07:12:33;8.80;1.00
7564;DHT22;3823;53.586;10.040;2023-03-21T07:15:04;8.80;1.00
7564;DHT22;3823;53.586;10.040;2023-03-21T07:17:31;8.80;1.00
7564;DHT22;3823;53.586;10.040;2023-03-21T07:19:57;8.80;1.00
7564;DHT22;3823;53.586;10.040;2023-03-21T07:22:22;8.80;1.00
7564;DHT22;3823;53.586;10.040;2023-03-21T07:24:48;8.90;1.00
7564;DHT22;3823;53.586;10.040;2023-03-21T07:27:15;8.80;1.00
7564;DHT22;3823;53.586;10.040;2023-03-21T07:29:40;8.80;1.00
7564;DHT22;3823;53.586;10.040;2023-03-21T07:32:06;8.80;1.00
7564;DHT22;3823;53.586;10.040;2023-03-21T07:34:32;8.90;1.00
7564;DHT22;3823;53.586;10.040;2023-03-21T07:36:58;8.90;1.00
7564;DHT22;3823;53.586;10.040;2023-03-21T07:39:25;9.00;1.00
7564;DHT22;3823;53.586;10.040;2023-03-21T07:41:50;9.00;1.00
7564;DHT22;3823;53.586;10.040;2023-03-21T07:44:16;9.00;1.00
7564;DHT22;3823;53.586;10.040;2023-03-21T07:46:41;9.00;1.00
7564;DHT22;3823;53.586;10.040;2023-03-21T07:49:07;9.00;1.00
7564;DHT22;3823;53.586;10.040;2023-03-21T07:51:33;9.00;1.00
7564;DHT22;3823;53.586;10.040;2023-03-21T07:54:00;9.00;1.00
7564;DHT22;3823;53.586;10.040;2023-03-21T07:56:26;9.00;1.00
7564;DHT22;3823;53.586;10.040;2023-03-21T07:58:52;9.00;1.00
7564;DHT22;3823;53.586;10.040;2023-03-21T08:01:18;9.00;1.00
7564;DHT22;3823;53.586;10.040;2023-03-21T08:03:43;9.10;1.00
7564;DHT22;3823;53.586;10.040;2023-03-21T08:06:09;9.20;1.00
7564;DHT22;3823;53.586;10.040;2023-03-21T08:08:35;9.10;1.00
7564;DHT22;3823;53.586;10.040;2023-03-21T08:11:02;9.10;1.00
7564;DHT22;3823;53.586;10.040;2023-03-21T08:13:28;9.10;1.00
7564;DHT22;3823;53.586;10.040;2023-03-21T08:15:53;9.10;1.00
7564;DHT22;3823;53.586;10.040;2023-03-21T08:18:19;9.20;1.00
7564;DHT22;3823;53.586;10.040;2023-03-21T08:20:44;9.20;1.00
7564;DHT22;3823;53.586;10.040;2023-03-21T08:23:10;9.20;1.00
7564;DHT22;3823;53.586;10.040;2023-03-21T08:25:38;9.20;1.00
7564;DHT22;3823;53.586;10.040;2023-03-21T08:28:03;9.20;1.00
7564;DHT22;3823;53.586;10.040;2023-03-21T08:30:29;9.20;1.00
7564;DHT22;3823;53.586;10.040;2023-03-21T08:32:56;9.20;1.00
7564;DHT22;3823;53.586;10.040;2023-03-21T08:35:22;9.20;1.00
7564;DHT22;3823;53.586;10.040;2023-03-21T08:37:48;9.20;1.00
7564;DHT22;3823;53.586;10.040;2023-03-21T08:40:15;9.30;1.00
7564;DHT22;3823;53.586;10.040;2023-03-21T08:42:42;9.30;1.00
7564;DHT22;3823;53.586;10.040;2023-03-21T08:45:09;9.30;1.00
7564;DHT22;3823;53.586;10.040;2023-03-21T08:47:35;9.40;1.00
7564;DHT22;3823;53.586;10.040;2023-03-21T08:50:03;9.50;1.00
7564;DHT22;3823;53.586;10.040;2023-03-21T08:52:31;9.40;1.00
7564;DHT22;3823;53.586;10.040;2023-03-21T08:54:56;9.40;1.00
7564;DHT22;3823;53.586;10.040;2023-03-21T08:57:23;9.40;1.00
7564;DHT22;3823;53.586;10.040;2023-03-21T08:59:48;9.40;1.00
7564;DHT22;3823;53.586;10.040;2023-03-21T09:02:15;9.30;1.00
7564;DHT22;3823;53.586;10.040;2023-03-21T09:04:41;9.30;1.00
7564;DHT22;3823;53.586;10.040;2023-03-21T09:07:08;9.30;1.00
7564;DHT22;3823;53.586;10.040;2023-03-21T09:09:35;9.40;1.00
7564;DHT22;3823;53.586;10.040;2023-03-21T09:12:01;9.40;1.00
7564;DHT22;3823;53.586;10.040;2023-03-21T09:14:27;9.50;1.00
7564;DHT22;3823;53.586;10.040;2023-03-21T09:16:52;9.50;1.00
7564;DHT22;3823;53.586;10.040;2023-03-21T09:19:18;9.50;1.00
7564;DHT22;3823;53.586;10.040;2023-03-21T09:21:44;9.50;1.00
7564;DHT22;3823;53.586;10.040;2023-03-21T09:24:09;9.60;1.00
7564;DHT22;3823;53.586;10.040;2023-03-21T09:26:37;9.60;1.00
7564;DHT22;3823;53.586;10.040;2023-03-21T09:29:03;9.60;1.00
7564;DHT22;3823;53.586;10.040;2023-03-21T09:31:30;9.70;1.00
7564;DHT22;3823;53.586;10.040;2023-03-21T09:33:56;9.70;1.00
7564;DHT22;3823;53.586;10.040;2023-03-21T09:36:22;9.70;1.00
7564;DHT22;3823;53.586;10.040;2023-03-21T09:38:49;9.70;1.00
7564;DHT22;3823;53.586;10.040;2023-03-21T09:44:33;9.70;1.00
7564;DHT22;3823;53.586;10.040;2023-03-21T09:47:26;9.80;1.00
7564;DHT22;3823;53.586;10.040;2023-03-21T09:50:01;9.70;1.00
7564;DHT22;3823;53.586;10.040;2023-03-21T09:52:45;9.70;1.00
7564;DHT22;3823;53.586;10.040;2023-03-21T09:55:21;9.80;1.00
7564;DHT22;3823;53.586;10.040;2023-03-21T09:57:51;9.90;1.00
7564;DHT22;3823;53.586;10.040;2023-03-21T10:00:25;10.00;1.00
7564;DHT22;3823;53.586;10.040;2023-03-21T10:02:54;10.00;1.00
7564;DHT22;3823;53.586;10.040;2023-03-21T10:05:25;9.90;1.00
7564;DHT22;3823;53.586;10.040;2023-03-21T10:10:27;9.90;1.00
7564;DHT22;3823;53.586;10.040;2023-03-21T10:12:54;9.90;1.00
7564;DHT22;3823;53.586;10.040;2023-03-21T10:15:23;9.90;1.00
7564;DHT22;3823;53.586;10.040;2023-03-21T10:18:04;9.90;1.00
7564;DHT22;3823;53.586;10.040;2023-03-21T10:20:33;9.90;1.00
7564;DHT22;3823;53.586;10.040;2023-03-21T10:23:02;9.90;1.00
7564;DHT22;3823;53.586;10.040;2023-03-21T10:27:58;9.90;1.00
7564;DHT22;3823;53.586;10.040;2023-03-21T10:30:45;9.90;1.00
7564;DHT22;3823;53.586;10.040;2023-03-21T10:33:18;10.00;1.00
7564;DHT22;3823;53.586;10.040;2023-03-21T10:35:49;10.00;1.00
7564;DHT22;3823;53.586;10.040;2023-03-21T10:38:18;9.90;1.00
7564;DHT22;3823;53.586;10.040;2023-03-21T10:40:45;10.00;1.00
7564;DHT22;3823;53.586;10.040;2023-03-21T10:45:50;9.90;1.00
7564;DHT22;3823;53.586;10.040;2023-03-21T10:48:17;10.00;1.00
7564;DHT22;3823;53.586;10.040;2023-03-21T10:50:45;10.00;1.00
7564;DHT22;3823;53.586;10.040;2023-03-21T10:53:22;10.00;1.00
7564;DHT22;3823;53.586;10.040;2023-03-21T10:55:54;10.00;1.00
7564;DHT22;3823;53.586;10.040;2023-03-21T10:58:25;10.00;1.00
7564;DHT22;3823;53.586;10.040;2023-03-21T11:01:17;10.10;1.00
7564;DHT22;3823;53.586;10.040;2023-03-21T11:04:04;10.00;1.00
7564;DHT22;3823;53.586;10.040;2023-03-21T11:06:33;10.00;1.00
7564;DHT22;3823;53.586;10.040;2023-03-21T11:12:39;10.10;1.00
7564;DHT22;3823;53.586;10.040;2023-03-21T11:15:28;10.00;1.00
7564;DHT22;3823;53.586;10.040;2023-03-21T11:17:55;10.00;1.00
7564;DHT22;3823;53.586;10.040;2023-03-21T11:20:21;10.10;1.00
7564;DHT22;3823;53.586;10.040;2023-03-21T11:22:48;10.10;1.00
7564;DHT22;3823;53.586;10.040;2023-03-21T11:27:52;10.10;1.00
7564;DHT22;3823;53.586;10.040;2023-03-21T11:30:23;10.10;1.00
7564;DHT22;3823;53.586;10.040;2023-03-21T11:32:58;10.10;1.00
7564;DHT22;3823;53.586;10.040;2023-03-21T11:35:35;10.10;1.00
7564;DHT22;3823;53.586;10.040;2023-03-21T11:38:01;10.10;1.00
7564;DHT22;3823;53.586;10.040;2023-03-21T11:40:35;10.20;1.00
7564;DHT22;3823;53.586;10.040;2023-03-21T11:43:03;10.30;1.00
7564;DHT22;3823;53.586;10.040;2023-03-21T11:48:23;10.30;1.00
7564;DHT22;3823;53.586;10.040;2023-03-21T11:50:50;10.30;1.00
7564;DHT22;3823;53.586;10.040;2023-03-21T11:53:30;10.30;1.00
7564;DHT22;3823;53.586;10.040;2023-03-21T12:01:30;10.30;1.00
7564;DHT22;3823;53.586;10.040;2023-03-21T12:04:00;10.30;1.00
7564;DHT22;3823;53.586;10.040;2023-03-21T12:06:39;10.30;1.00
7564;DHT22;3823;53.586;10.040;2023-03-21T12:09:25;10.20;1.00
7564;DHT22;3823;53.586;10.040;2023-03-21T12:14:50;10.30;1.00
7564;DHT22;3823;53.586;10.040;2023-03-21T12:18:30;10.30;1.00
7564;DHT22;3823;53.586;10.040;2023-03-21T12:23:46;10.50;1.00
7564;DHT22;3823;53.586;10.040;2023-03-21T12:28:38;10.60;1.00
7564;DHT22;3823;53.586;10.040;2023-03-21T12:34:52;10.80;1.00
7564;DHT22;3823;53.586;10.040;2023-03-21T12:45:36;10.70;1.00
7564;DHT22;3823;53.586;10.040;2023-03-21T12:51:03;10.80;1.00
7564;DHT22;3823;53.586;10.040;2023-03-21T12:53:46;10.80;1.00
7564;DHT22;3823;53.586;10.040;2023-03-21T12:56:18;10.70;1.00
7564;DHT22;3823;53.586;10.040;2023-03-21T12:58:53;10.70;1.00
7564;DHT22;3823;53.586;10.040;2023-03-21T13:01:22;10.70;1.00
7564;DHT22;3823;53.586;10.040;2023-03-21T13:06:51;10.60;1.00
7564;DHT22;3823;53.586;10.040;2023-03-21T13:09:32;10.70;1.00
7564;DHT22;3823;53.586;10.040;2023-03-21T13:12:02;10.70;1.00
7564;DHT22;3823;53.586;10.040;2023-03-21T13:14:37;10.60;1.00
7564;DHT22;3823;53.586;10.040;2023-03-21T13:17:09;10.60;1.00
7564;DHT22;3823;53.586;10.040;2023-03-21T13:19:47;10.60;1.00
7564;DHT22;3823;53.586;10.040;2023-03-21T13:22:28;10.60;1.00
7564;DHT22;3823;53.586;10.040;2023-03-21T13:29:58;10.50;1.00
7564;DHT22;3823;53.586;10.040;2023-03-21T13:32:37;10.60;1.00
7564;DHT22;3823;53.586;10.040;2023-03-21T13:35:16;10.60;1.00
7564;DHT22;3823;53.586;10.040;2023-03-21T13:37:58;10.60;1.00
7564;DHT22;3823;53.586;10.040;2023-03-21T13:40:46;10.60;1.00
7564;DHT22;3823;53.586;10.040;2023-03-21T13:46:33;10.60;1.00
7564;DHT22;3823;53.586;10.040;2023-03-21T13:49:01;10.60;1.00
7564;DHT22;3823;53.586;10.040;2023-03-21T13:54:03;10.50;1.00
7564;DHT22;3823;53.586;10.040;2023-03-21T13:59:10;10.50;1.00
7564;DHT22;3823;53.586;10.040;2023-03-21T14:01:40;10.60;1.00
7564;DHT22;3823;53.586;10.040;2023-03-21T14:09:07;10.70;1.00
7564;DHT22;3823;53.586;10.040;2023-03-21T14:11:35;10.60;1.00
7564;DHT22;3823;53.586;10.040;2023-03-21T14:14:01;10.70;1.00
7564;DHT22;3823;53.586;10.040;2023-03-21T14:16:29;10.60;1.00
7564;DHT22;3823;53.586;10.040;2023-03-21T14:19:04;10.60;1.00
7564;DHT22;3823;53.586;10.040;2023-03-21T14:21:32;10.60;1.00
7564;DHT22;3823;53.586;10.040;2023-03-21T14:24:12;10.60;1.00
7564;DHT22;3823;53.586;10.040;2023-03-21T14:26:53;10.60;1.00
7564;DHT22;3823;53.586;10.040;2023-03-21T14:29:30;10.60;1.00
7564;DHT22;3823;53.586;10.040;2023-03-21T14:31:58;10.60;1.00
7564;DHT22;3823;53.586;10.040;2023-03-21T14:34:26;10.60;1.00
7564;DHT22;3823;53.586;10.040;2023-03-21T14:36:52;10.60;1.00
7564;DHT22;3823;53.586;10.040;2023-03-21T14:39:24;10.70;1.00
7564;DHT22;3823;53.586;10.040;2023-03-21T14:41:56;10.60;1.00
7564;DHT22;3823;53.586;10.040;2023-03-21T14:44:39;10.70;1.00
7564;DHT22;3823;53.586;10.040;2023-03-21T14:47:07;10.70;1.00
7564;DHT22;3823;53.586;10.040;2023-03-21T14:49:36;10.60;1.00
7564;DHT22;3823;53.586;10.040;2023-03-21T14:52:06;10.60;1.00
7564;DHT22;3823;53.586;10.040;2023-03-21T14:54:34;10.60;1.00
7564;DHT22;3823;53.586;10.040;2023-03-21T14:57:04;10.60;1.00
7564;DHT22;3823;53.586;10.040;2023-03-21T14:59:34;10.50;1.00
7564;DHT22;3823;53.586;10.040;2023-03-21T15:02:03;10.60;1.00
7564;DHT22;3823;53.586;10.040;2023-03-21T15:04:30;10.60;1.00
7564;DHT22;3823;53.586;10.040;2023-03-21T15:06:59;10.60;1.00
7564;DHT22;3823;53.586;10.040;2023-03-21T15:09:30;10.60;1.00
7564;DHT22;3823;53.586;10.040;2023-03-21T15:11:57;10.60;1.00
7564;DHT22;3823;53.586;10.040;2023-03-21T15:14:32;10.60;1.00
7564;DHT22;3823;53.586;10.040;2023-03-21T15:17:00;10.60;1.00
7564;DHT22;3823;53.586;10.040;2023-03-21T15:19:33;10.50;1.00
7564;DHT22;3823;53.586;10.040;2023-03-21T15:22:08;10.50;1.00
7564;DHT22;3823;53.586;10.040;2023-03-21T15:24:42;10.50;1.00
7564;DHT22;3823;53.586;10.040;2023-03-21T15:27:14;10.50;1.00
7564;DHT22;3823;53.586;10.040;2023-03-21T15:29:42;10.50;1.00
7564;DHT22;3823;53.586;10.040;2023-03-21T15:32:14;10.50;1.00
7564;DHT22;3823;53.586;10.040;2023-03-21T15:34:41;10.60;1.00
7564;DHT22;3823;53.586;10.040;2023-03-21T15:37:13;10.60;1.00
7564;DHT22;3823;53.586;10.040;2023-03-21T15:39:40;10.50;1.00
7564;DHT22;3823;53.586;10.040;2023-03-21T15:42:23;10.50;1.00
7564;DHT22;3823;53.586;10.040;2023-03-21T15:44:52;10.40;1.00
7564;DHT22;3823;53.586;10.040;2023-03-21T15:47:39;10.40;1.00
7564;DHT22;3823;53.586;10.040;2023-03-21T15:50:35;10.40;1.00
7564;DHT22;3823;53.586;10.040;2023-03-21T15:53:05;10.40;1.00
7564;DHT22;3823;53.586;10.040;2023-03-21T15:55:47;10.40;1.00
7564;DHT22;3823;53.586;10.040;2023-03-21T15:58:31;10.40;1.00
7564;DHT22;3823;53.586;10.040;2023-03-21T16:01:02;10.40;1.00
7564;DHT22;3823;53.586;10.040;2023-03-21T16:03:32;10.40;1.00
7564;DHT22;3823;53.586;10.040;2023-03-21T16:08:48;10.40;1.00
7564;DHT22;3823;53.586;10.040;2023-03-21T16:13:43;10.30;1.00
7564;DHT22;3823;53.586;10.040;2023-03-21T16:16:16;10.30;1.00
7564;DHT22;3823;53.586;10.040;2023-03-21T16:18:42;10.20;1.00
7564;DHT22;3823;53.586;10.040;2023-03-21T16:21:12;10.20;1.00
7564;DHT22;3823;53.586;10.040;2023-03-21T16:23:39;10.20;1.00
7564;DHT22;3823;53.586;10.040;2023-03-21T16:26:04;10.20;1.00
7564;DHT22;3823;53.586;10.040;2023-03-21T16:28:30;10.20;1.00
7564;DHT22;3823;53.586;10.040;2023-03-21T16:30:56;10.20;1.00
7564;DHT22;3823;53.586;10.040;2023-03-21T16:33:21;10.20;1.00
7564;DHT22;3823;53.586;10.040;2023-03-21T16:35:50;10.30;1.00
7564;DHT22;3823;53.586;10.040;2023-03-21T16:38:16;10.20;1.00
7564;DHT22;3823;53.586;10.040;2023-03-21T16:40:42;10.10;1.00
7564;DHT22;3823;53.586;10.040;2023-03-21T16:43:08;10.10;1.00
7564;DHT22;3823;53.586;10.040;2023-03-21T16:45:34;10.20;1.00
7564;DHT22;3823;53.586;10.040;2023-03-21T16:48:00;10.20;1.00
7564;DHT22;3823;53.586;10.040;2023-03-21T16:50:34;10.20;1.00
7564;DHT22;3823;53.586;10.040;2023-03-21T16:53:00;10.20;1.00
7564;DHT22;3823;53.586;10.040;2023-03-21T16:55:27;10.20;1.00
7564;DHT22;3823;53.586;10.040;2023-03-21T16:57:53;10.10;1.00
7564;DHT22;3823;53.586;10.040;2023-03-21T17:00:24;10.20;1.00
7564;DHT22;3823;53.586;10.040;2023-03-21T17:02:51;10.20;1.00
7564;DHT22;3823;53.586;10.040;2023-03-21T17:05:17;10.20;1.00
7564;DHT22;3823;53.586;10.040;2023-03-21T17:07:43;10.20;1.00
7564;DHT22;3823;53.586;10.040;2023-03-21T17:10:29;10.10;1.00
7564;DHT22;3823;53.586;10.040;2023-03-21T17:12:55;10.10;1.00
7564;DHT22;3823;53.586;10.040;2023-03-21T17:15:21;10.20;1.00
7564;DHT22;3823;53.586;10.040;2023-03-21T17:17:47;10.20;1.00
7564;DHT22;3823;53.586;10.040;2023-03-21T17:20:18;10.20;1.00
7564;DHT22;3823;53.586;10.040;2023-03-21T17:22:44;10.20;1.00
7564;DHT22;3823;53.586;10.040;2023-03-21T17:25:10;10.20;1.00
7564;DHT22;3823;53.586;10.040;2023-03-21T17:27:36;10.20;1.00
7564;DHT22;3823;53.586;10.040;2023-03-21T17:30:02;10.10;1.00
7564;DHT22;3823;53.586;10.040;2023-03-21T17:32:28;10.20;1.00
7564;DHT22;3823;53.586;10.040;2023-03-21T17:34:54;10.20;1.00
7564;DHT22;3823;53.586;10.040;2023-03-21T17:37:20;10.10;1.00
7564;DHT22;3823;53.586;10.040;2023-03-21T17:39:46;10.10;1.00
7564;DHT22;3823;53.586;10.040;2023-03-21T17:42:13;10.10;1.00
7564;DHT22;3823;53.586;10.040;2023-03-21T17:44:42;10.10;1.00
7564;DHT22;3823;53.586;10.040;2023-03-21T17:47:09;10.10;1.00
7564;DHT22;3823;53.586;10.040;2023-03-21T17:49:35;10.10;1.00
7564;DHT22;3823;53.586;10.040;2023-03-21T17:52:00;10.10;1.00
7564;DHT22;3823;53.586;10.040;2023-03-21T17:54:26;10.10;1.00
7564;DHT22;3823;53.586;10.040;2023-03-21T17:56:51;10.10;1.00
7564;DHT22;3823;53.586;10.040;2023-03-21T17:59:18;10.10;1.00
7564;DHT22;3823;53.586;10.040;2023-03-21T18:01:44;10.10;1.00
7564;DHT22;3823;53.586;10.040;2023-03-21T18:04:10;10.00;1.00